createdAt,value
2023-05-19T00:01:48.599Z,72.15
2023-05-19T00:04:15.633Z,72.79
2023-05-19T00:06:42.587Z,72.54
2023-05-19T00:09:10.347Z,72.72
2023-05-19T00:11:38.472Z,73.13
2023-05-19T00:14:07.847Z,74.14
2023-05-19T00:16:34.931Z,74.08
2023-05-19T00:19:03.609Z,73.49
2023-05-19T00:21:31.361Z,73.21
2023-05-19T00:23:58.197Z,72.92
2023-05-19T00:26:27.063Z,72.19
2023-05-19T00:28:54.021Z,72.99
2023-05-19T00:31:20.741Z,71.33
2023-05-19T00:33:47.363Z,70.64
2023-05-19T00:36:13.876Z,71.63
2023-05-19T00:38:40.546Z,71.20
2023-05-19T00:41:07.319Z,70.88
2023-05-19T00:43:36.392Z,71.11
2023-05-19T00:46:03.474Z,71.49
2023-05-19T00:48:30.036Z,71.60
2023-05-19T00:51:02.341Z,71.81
2023-05-19T00:53:29.426Z,71.56
2023-05-19T00:55:56.511Z,71.37
2023-05-19T00:58:25.581Z,72.17
2023-05-19T01:00:52.427Z,71.08
2023-05-19T01:03:20.408Z,71.37
2023-05-19T01:05:47.642Z,72.12
2023-05-19T01:08:14.210Z,72.52
2023-05-19T01:10:40.845Z,72.71
2023-05-19T01:13:08.360Z,72.85
2023-05-19T01:15:59.369Z,72.59
2023-05-19T01:18:36.847Z,72.67
2023-05-19T01:21:19.176Z,73.26
2023-05-19T01:24:09.090Z,73.20
2023-05-19T01:27:17.007Z,73.16
2023-05-19T01:30:11.834Z,73.01
2023-05-19T01:32:41.911Z,72.65
2023-05-19T01:35:09.732Z,72.12
2023-05-19T01:37:38.822Z,72.03
2023-05-19T01:40:09.925Z,72.75
2023-05-19T01:42:39.836Z,73.93
2023-05-19T01:45:10.569Z,74.40
2023-05-19T01:47:41.224Z,73.65
2023-05-19T01:50:08.094Z,74.25
2023-05-19T01:52:34.723Z,75.20
2023-05-19T01:55:01.213Z,73.54
2023-05-19T01:57:42.718Z,72.62
2023-05-19T02:00:31.320Z,73.95
2023-05-19T02:03:16.533Z,76.54
2023-05-19T02:05:55.655Z,77.57
2023-05-19T02:08:44.281Z,75.15
2023-05-19T02:11:25.811Z,75.79
2023-05-19T02:13:55.738Z,76.87
2023-05-19T02:16:27.615Z,76.93
2023-05-19T02:18:55.256Z,76.41
2023-05-19T02:21:21.783Z,74.17
2023-05-19T02:23:49.019Z,76.23
2023-05-19T02:26:15.551Z,75.26
2023-05-19T02:28:42.097Z,74.58
2023-05-19T02:31:10.088Z,74.59
2023-05-19T02:33:37.441Z,73.63
2023-05-19T02:36:04.456Z,74.63
2023-05-19T02:38:31.018Z,75.10
2023-05-19T02:40:57.498Z,73.92
2023-05-19T02:43:23.931Z,73.55
2023-05-19T02:45:50.512Z,73.81
2023-05-19T02:48:17.010Z,73.94
2023-05-19T02:50:43.607Z,74.17
2023-05-19T02:53:10.323Z,74.34
2023-05-19T02:55:37.304Z,74.17
2023-05-19T02:58:04.139Z,74.82
2023-05-19T03:00:30.784Z,75.66
2023-05-19T03:03:02.700Z,76.66
2023-05-19T03:05:30.367Z,77.06
2023-05-19T03:07:56.972Z,75.21
2023-05-19T03:10:23.593Z,77.66
2023-05-19T03:12:50.041Z,77.80
2023-05-19T03:15:16.663Z,77.53
2023-05-19T03:17:43.386Z,78.32
2023-05-19T03:20:10.865Z,78.15
2023-05-19T03:22:37.372Z,76.92
2023-05-19T03:25:04.239Z,77.80
2023-05-19T03:27:30.746Z,77.53
2023-05-19T03:29:57.253Z,79.03
2023-05-19T03:32:23.928Z,77.68
2023-05-19T03:34:50.728Z,77.03
2023-05-19T03:37:17.258Z,77.63
2023-05-19T03:39:43.803Z,77.79
2023-05-19T03:42:10.457Z,76.12
2023-05-19T03:44:36.917Z,75.65
2023-05-19T03:47:03.484Z,75.73
2023-05-19T03:49:29.987Z,75.53
2023-05-19T03:51:56.494Z,75.06
2023-05-19T03:54:23.292Z,74.47
2023-05-19T03:56:49.969Z,74.81
2023-05-19T03:59:16.581Z,74.53
2023-05-19T04:01:43.138Z,73.42
2023-05-19T04:04:09.700Z,73.60
2023-05-19T04:06:36.278Z,73.88
2023-05-19T04:09:05.120Z,73.20
2023-05-19T04:11:31.773Z,72.79
2023-05-19T04:13:58.279Z,72.63
2023-05-19T04:16:24.992Z,72.36
2023-05-19T04:18:51.824Z,71.63
2023-05-19T04:21:18.480Z,71.91
2023-05-19T04:23:45.030Z,70.61
2023-05-19T04:26:12.287Z,70.42
2023-05-19T04:28:42.283Z,70.21
2023-05-19T04:31:12.840Z,69.62
2023-05-19T04:33:40.363Z,68.94
2023-05-19T04:36:11.468Z,68.44
2023-05-19T04:38:39.922Z,68.47
2023-05-19T04:41:10.623Z,67.89
2023-05-19T04:43:41.496Z,67.24
2023-05-19T04:46:12.315Z,67.40
2023-05-19T04:48:42.823Z,67.11
2023-05-19T04:51:09.526Z,66.64
2023-05-19T04:53:36.639Z,66.57
2023-05-19T04:56:03.589Z,66.43
2023-05-19T04:58:30.238Z,65.70
2023-05-19T05:00:57.829Z,65.62
2023-05-19T05:03:25.177Z,65.87
2023-05-19T05:05:52.331Z,65.35
2023-05-19T05:08:24.851Z,64.78
2023-05-19T05:10:55.429Z,64.49
2023-05-19T05:13:23.937Z,63.83
2023-05-19T05:15:52.197Z,63.41
2023-05-19T05:18:19.124Z,62.72
2023-05-19T05:20:46.928Z,62.86
2023-05-19T05:23:14.638Z,63.06
2023-05-19T05:25:42.052Z,62.47
2023-05-19T05:28:08.839Z,62.59
2023-05-19T05:30:35.775Z,62.04
2023-05-19T05:33:03.248Z,61.61
2023-05-19T05:35:29.951Z,59.82
2023-05-19T05:37:56.522Z,58.75
2023-05-19T05:40:23.173Z,57.92
2023-05-19T05:42:49.792Z,56.30
2023-05-19T05:45:16.357Z,57.22
2023-05-19T05:47:43.201Z,57.06
2023-05-19T05:50:10.844Z,56.04
2023-05-19T05:52:38.243Z,56.01
2023-05-19T05:55:05.661Z,56.18
2023-05-19T05:57:35.328Z,55.86
2023-05-19T06:00:02.320Z,55.78
2023-05-19T06:02:29.919Z,56.82
2023-05-19T06:04:56.541Z,56.33
2023-05-19T06:07:24.256Z,56.55
2023-05-19T06:09:50.828Z,56.90
2023-05-19T06:12:17.994Z,56.81
2023-05-19T06:14:44.566Z,57.23
2023-05-19T06:17:11.207Z,56.90
2023-05-19T06:19:37.678Z,57.41
2023-05-19T06:22:04.287Z,58.36
2023-05-19T06:24:30.947Z,58.31
2023-05-19T06:26:57.510Z,58.68
2023-05-19T06:29:24.026Z,58.60
2023-05-19T06:31:50.710Z,58.03
2023-05-19T06:34:17.924Z,59.49
2023-05-19T06:36:44.500Z,59.32
2023-05-19T06:39:11.041Z,59.59
2023-05-19T06:41:37.571Z,60.28
2023-05-19T06:44:04.437Z,60.38
2023-05-19T06:46:31.218Z,60.29
2023-05-19T06:48:57.859Z,59.97
2023-05-19T06:51:24.387Z,60.14
2023-05-19T06:53:50.946Z,59.71
2023-05-19T06:56:18.913Z,59.78
2023-05-19T06:58:45.763Z,59.70
2023-05-19T07:01:12.323Z,60.05
2023-05-19T07:03:39.213Z,60.24
2023-05-19T07:06:08.081Z,59.84
2023-05-19T07:08:37.052Z,59.50
2023-05-19T07:11:03.826Z,59.66
2023-05-19T07:13:30.271Z,59.40
2023-05-19T07:15:56.954Z,59.54
2023-05-19T07:18:23.474Z,58.67
2023-05-19T07:20:52.189Z,59.52
2023-05-19T07:23:18.748Z,60.07
2023-05-19T07:25:45.273Z,59.96
2023-05-19T07:28:11.897Z,58.83
2023-05-19T07:30:39.037Z,58.35
2023-05-19T07:33:05.684Z,57.84
2023-05-19T07:35:32.688Z,57.97
2023-05-19T07:37:59.303Z,58.73
2023-05-19T07:40:26.052Z,58.84
2023-05-19T07:42:52.659Z,58.61
2023-05-19T07:45:19.165Z,57.97
2023-05-19T07:47:45.879Z,57.85
2023-05-19T07:50:12.430Z,57.47
2023-05-19T07:52:39.019Z,56.99
2023-05-19T07:55:06.032Z,57.25
2023-05-19T07:57:32.543Z,57.30
2023-05-19T07:59:59.048Z,57.48
2023-05-19T08:02:25.780Z,57.67
2023-05-19T08:04:53.192Z,57.29
2023-05-19T08:07:19.745Z,57.31
2023-05-19T08:09:46.303Z,57.36
2023-05-19T08:12:12.864Z,56.84
2023-05-19T08:14:39.374Z,56.46
2023-05-19T08:17:06.520Z,56.26
2023-05-19T08:19:33.025Z,55.74
2023-05-19T08:22:01.201Z,55.40
2023-05-19T08:24:32.795Z,55.18
2023-05-19T08:26:59.604Z,53.74
2023-05-19T08:29:26.236Z,53.30
2023-05-19T08:31:53.474Z,53.78
2023-05-19T08:34:20.803Z,53.59
2023-05-19T08:36:47.709Z,51.77
2023-05-19T08:39:16.199Z,51.52
2023-05-19T08:41:42.713Z,52.62
2023-05-19T08:44:09.716Z,52.01
2023-05-19T08:46:36.584Z,52.38
2023-05-19T08:49:10.280Z,52.16
2023-05-19T08:51:50.042Z,51.01
2023-05-19T08:54:18.100Z,50.69
2023-05-19T08:56:45.716Z,51.10
2023-05-19T08:59:15.270Z,50.88
2023-05-19T09:01:45.996Z,50.77
2023-05-19T09:04:13.446Z,50.72
2023-05-19T09:06:42.468Z,50.44
2023-05-19T09:09:09.332Z,49.74
2023-05-19T09:11:37.582Z,49.87
2023-05-19T09:14:05.274Z,48.89
2023-05-19T09:16:33.843Z,50.22
2023-05-19T09:19:03.275Z,49.42
2023-05-19T09:21:33.621Z,50.39
2023-05-19T09:24:07.915Z,50.28
2023-05-19T09:26:38.684Z,50.11
2023-05-19T09:29:29.055Z,49.95
2023-05-19T09:32:01.062Z,50.91
2023-05-19T09:34:28.034Z,51.17
2023-05-19T09:36:54.850Z,52.03
2023-05-19T09:39:23.047Z,51.35
2023-05-19T09:41:58.685Z,51.21
2023-05-19T09:44:30.403Z,52.54
2023-05-19T09:46:58.841Z,52.45
2023-05-19T09:49:29.466Z,52.85
2023-05-19T09:52:02.208Z,53.55
2023-05-19T09:54:32.106Z,53.29
2023-05-19T09:56:59.860Z,54.10
2023-05-19T09:59:29.753Z,54.64
2023-05-19T10:01:59.498Z,54.27
2023-05-19T10:04:29.692Z,53.66
2023-05-19T10:07:01.037Z,53.88
2023-05-19T10:09:29.437Z,53.77
2023-05-19T10:11:57.912Z,53.46
2023-05-19T10:14:26.318Z,53.34
2023-05-19T10:16:57.728Z,52.96
2023-05-19T10:19:26.189Z,53.11
2023-05-19T10:21:53.419Z,53.36
2023-05-19T10:24:21.320Z,53.67
2023-05-19T10:26:56.406Z,53.80
2023-05-19T10:29:29.663Z,54.14
2023-05-19T10:32:01.156Z,54.47
2023-05-19T10:34:37.498Z,54.31
2023-05-19T10:37:22.442Z,53.83
2023-05-19T10:39:51.331Z,54.17
2023-05-19T10:42:33.478Z,54.14
2023-05-19T10:45:12.261Z,54.76
2023-05-19T10:47:44.082Z,54.55
2023-05-19T10:50:11.141Z,55.34
2023-05-19T10:52:39.697Z,55.83
2023-05-19T10:55:15.796Z,56.07
2023-05-19T10:57:54.243Z,57.79
2023-05-19T11:00:28.548Z,58.17
2023-05-19T11:03:18.631Z,59.06
2023-05-19T11:05:45.441Z,58.40
2023-05-19T11:08:13.009Z,58.29
2023-05-19T11:10:39.626Z,57.75
2023-05-19T11:13:06.785Z,57.44
2023-05-19T11:15:39.315Z,56.40
2023-05-19T11:18:06.301Z,56.13
2023-05-19T11:20:34.927Z,55.50
2023-05-19T11:23:08.606Z,54.45
2023-05-19T11:25:46.978Z,53.01
2023-05-19T11:28:29.255Z,52.72
2023-05-19T11:30:59.035Z,52.23
2023-05-19T11:33:29.057Z,51.30
2023-05-19T11:36:00.237Z,50.43
2023-05-19T11:38:28.593Z,49.75
2023-05-19T11:40:56.265Z,48.81
2023-05-19T11:43:24.392Z,49.36
2023-05-19T11:45:51.246Z,50.05
2023-05-19T11:48:21.114Z,50.26
2023-05-19T11:50:47.818Z,50.03
2023-05-19T11:53:16.398Z,50.27
2023-05-19T11:55:47.580Z,49.54
2023-05-19T11:58:14.856Z,49.70
2023-05-19T12:00:43.115Z,49.61
2023-05-19T12:03:10.063Z,49.98
2023-05-19T12:05:42.933Z,49.21
2023-05-19T12:08:11.495Z,50.01
2023-05-19T12:10:39.539Z,50.41
2023-05-19T12:13:10.301Z,51.28
2023-05-19T12:15:37.960Z,51.42
2023-05-19T12:18:04.614Z,52.48
2023-05-19T12:20:32.885Z,54.04
2023-05-19T12:23:00.799Z,55.33
2023-05-19T12:25:29.390Z,55.27
2023-05-19T12:28:05.943Z,55.38
2023-05-19T12:30:33.670Z,55.63
2023-05-19T12:33:02.224Z,56.07
2023-05-19T12:35:33.228Z,56.24
2023-05-19T12:38:04.732Z,56.37
2023-05-19T12:40:31.916Z,56.76
2023-05-19T12:43:01.511Z,56.42
2023-05-19T12:45:28.763Z,56.43
2023-05-19T12:47:56.022Z,56.50
2023-05-19T12:50:31.257Z,57.03
2023-05-19T12:52:59.886Z,56.65
2023-05-19T12:55:26.725Z,56.74
2023-05-19T12:57:59.229Z,56.64
2023-05-19T13:00:28.698Z,56.52
2023-05-19T13:03:06.585Z,57.08
2023-05-19T13:05:38.857Z,57.03
2023-05-19T13:08:08.100Z,57.47
2023-05-19T13:10:36.438Z,57.36
2023-05-19T13:13:05.148Z,57.68
2023-05-19T13:15:37.765Z,58.03
2023-05-19T13:18:06.739Z,57.93
2023-05-19T13:20:34.281Z,57.79
2023-05-19T13:23:01.558Z,58.09
2023-05-19T13:25:28.314Z,58.28
2023-05-19T13:27:55.318Z,59.08
2023-05-19T13:30:22.689Z,58.79
2023-05-19T13:32:49.279Z,58.99
2023-05-19T13:35:15.999Z,58.96
2023-05-19T13:37:42.888Z,58.84
2023-05-19T13:40:09.947Z,58.38
2023-05-19T13:42:36.708Z,58.00
2023-05-19T13:45:03.982Z,57.70
2023-05-19T13:47:30.806Z,57.74
2023-05-19T13:49:57.664Z,57.83
2023-05-19T13:52:24.298Z,57.96
2023-05-19T13:54:51.046Z,58.05
2023-05-19T13:57:18.234Z,57.71
2023-05-19T13:59:57.649Z,57.35
2023-05-19T14:02:28.338Z,57.12
2023-05-19T14:04:55.998Z,57.25
2023-05-19T14:07:22.753Z,57.56
2023-05-19T14:09:51.238Z,57.38
2023-05-19T14:12:25.531Z,57.99
2023-05-19T14:15:02.167Z,57.71
2023-05-19T14:17:29.088Z,58.47
2023-05-19T14:19:56.250Z,59.15
2023-05-19T14:22:22.851Z,59.70
2023-05-19T14:24:49.479Z,61.36
2023-05-19T14:27:16.083Z,60.88
2023-05-19T14:29:42.923Z,60.84
2023-05-19T14:32:09.486Z,61.38
2023-05-19T14:34:36.230Z,60.98
2023-05-19T14:37:02.862Z,60.90
2023-05-19T14:39:31.176Z,60.66
2023-05-19T14:41:59.528Z,60.66
2023-05-19T14:44:30.836Z,61.03
2023-05-19T14:46:57.414Z,61.49
2023-05-19T14:49:23.912Z,61.52
2023-05-19T14:51:50.683Z,62.88
2023-05-19T14:54:17.210Z,62.73
2023-05-19T14:56:44.302Z,63.01
2023-05-19T14:59:10.838Z,62.77
2023-05-19T15:01:37.647Z,63.70
2023-05-19T15:04:04.504Z,63.77
2023-05-19T15:06:31.131Z,64.59
2023-05-19T15:08:57.603Z,65.21
2023-05-19T15:11:24.131Z,66.13
2023-05-19T15:13:50.686Z,65.47
2023-05-19T15:16:18.376Z,66.49
2023-05-19T15:18:45.490Z,65.47
2023-05-19T15:21:12.682Z,66.25
2023-05-19T15:23:39.279Z,65.80
2023-05-19T15:26:05.966Z,65.73
2023-05-19T15:28:33.555Z,66.14
2023-05-19T15:31:00.653Z,65.82
2023-05-19T15:33:27.288Z,66.17
2023-05-19T15:35:54.339Z,66.02
2023-05-19T15:38:20.923Z,66.42
2023-05-19T15:40:48.073Z,67.39
2023-05-19T15:43:14.775Z,66.84
2023-05-19T15:45:41.529Z,67.93
2023-05-19T15:48:08.628Z,67.60
2023-05-19T15:50:36.117Z,67.76
2023-05-19T15:53:03.458Z,67.29
2023-05-19T15:55:30.163Z,67.94
2023-05-19T15:57:57.158Z,67.83
2023-05-19T16:00:23.772Z,68.13
2023-05-19T16:02:50.784Z,68.23
2023-05-19T16:05:17.818Z,69.39
2023-05-19T16:07:44.378Z,68.41
2023-05-19T16:10:11.306Z,68.96
2023-05-19T16:12:37.792Z,67.66
2023-05-19T16:15:04.781Z,67.99
2023-05-19T16:17:31.503Z,67.66
2023-05-19T16:19:58.066Z,69.51
2023-05-19T16:22:25.439Z,69.17
2023-05-19T16:24:52.451Z,71.18
2023-05-19T16:27:19.185Z,70.40
2023-05-19T16:29:45.909Z,69.25
2023-05-19T16:32:12.950Z,70.29
2023-05-19T16:34:39.919Z,69.30
2023-05-19T16:37:06.522Z,69.09
2023-05-19T16:39:36.266Z,68.66
2023-05-19T16:42:06.231Z,69.34
2023-05-19T16:44:32.839Z,68.75
2023-05-19T16:47:00.067Z,68.72
2023-05-19T16:49:26.799Z,70.14
2023-05-19T16:51:54.249Z,70.41
2023-05-19T16:54:21.364Z,70.36
2023-05-19T16:56:47.958Z,70.42
2023-05-19T16:59:14.572Z,72.12
2023-05-19T17:01:41.345Z,71.04
2023-05-19T17:04:08.217Z,70.96
2023-05-19T17:06:34.899Z,71.33
2023-05-19T17:09:01.999Z,72.08
2023-05-19T17:11:28.558Z,72.23
2023-05-19T17:13:55.026Z,72.79
2023-05-19T17:16:21.698Z,72.85
2023-05-19T17:18:48.350Z,72.44
2023-05-19T17:21:14.961Z,71.57
2023-05-19T17:23:41.893Z,71.73
2023-05-19T17:26:09.033Z,72.75
2023-05-19T17:28:35.777Z,73.69
2023-05-19T17:31:10.684Z,73.74
2023-05-19T17:33:37.398Z,71.69
2023-05-19T17:36:04.905Z,72.27
2023-05-19T17:38:32.454Z,72.52
2023-05-19T17:40:59.690Z,73.36
2023-05-19T17:43:26.962Z,72.53
2023-05-19T17:45:54.514Z,72.98
2023-05-19T17:48:21.139Z,72.70
2023-05-19T17:50:48.553Z,74.71
2023-05-19T17:53:16.117Z,73.68
2023-05-19T17:55:50.268Z,74.38
2023-05-19T17:58:18.183Z,72.50
2023-05-19T18:00:46.628Z,73.36
2023-05-19T18:03:13.683Z,74.39
2023-05-19T18:05:41.209Z,75.78
2023-05-19T18:08:09.316Z,74.69
2023-05-19T18:10:37.743Z,75.64
2023-05-19T18:13:05.342Z,74.48
2023-05-19T18:15:32.083Z,75.38
2023-05-19T18:17:59.117Z,74.12
2023-05-19T18:20:25.690Z,76.26
2023-05-19T18:22:52.197Z,76.02
2023-05-19T18:25:19.982Z,74.91
2023-05-19T18:27:47.458Z,75.06
2023-05-19T18:30:13.996Z,74.51
2023-05-19T18:32:40.668Z,74.61
2023-05-19T18:35:08.568Z,75.05
2023-05-19T18:37:35.730Z,74.82
2023-05-19T18:40:02.322Z,75.41
2023-05-19T18:42:32.205Z,76.19
2023-05-19T18:44:59.530Z,75.24
2023-05-19T18:47:26.182Z,75.67
2023-05-19T18:49:53.135Z,75.15
2023-05-19T18:52:21.843Z,74.86
2023-05-19T18:54:48.785Z,75.43
2023-05-19T18:57:15.372Z,75.95
2023-05-19T18:59:42.443Z,75.50
2023-05-19T19:02:09.015Z,75.29
2023-05-19T19:04:38.395Z,75.27
2023-05-19T19:07:08.608Z,75.97
2023-05-19T19:09:35.652Z,75.65
2023-05-19T19:12:02.157Z,75.85
2023-05-19T19:14:28.646Z,75.35
2023-05-19T19:16:55.292Z,75.83
2023-05-19T19:19:23.741Z,75.80
2023-05-19T19:21:50.795Z,75.54
2023-05-19T19:24:17.305Z,77.07
2023-05-19T19:26:44.374Z,75.64
2023-05-19T19:29:11.077Z,76.10
2023-05-19T19:31:38.444Z,76.28
2023-05-19T19:34:09.125Z,76.97
2023-05-19T19:36:36.237Z,76.22
2023-05-19T19:39:02.933Z,76.19
2023-05-19T19:41:30.241Z,75.75
2023-05-19T19:43:56.904Z,75.84
2023-05-19T19:46:23.683Z,76.22
2023-05-19T19:48:51.209Z,76.80
2023-05-19T19:51:17.870Z,79.60
2023-05-19T19:53:44.555Z,76.86
2023-05-19T19:56:11.245Z,77.43
2023-05-19T19:58:37.881Z,78.81
2023-05-19T20:01:06.045Z,77.24
2023-05-19T20:03:33.346Z,77.27
2023-05-19T20:06:00.006Z,77.68
2023-05-19T20:08:27.055Z,76.66
2023-05-19T20:10:53.748Z,77.92
2023-05-19T20:13:20.959Z,78.00
2023-05-19T20:15:47.599Z,77.41
2023-05-19T20:18:14.403Z,78.17
2023-05-19T20:20:41.697Z,77.29
2023-05-19T20:23:08.783Z,77.81
2023-05-19T20:25:53.686Z,80.25
2023-05-19T20:28:26.140Z,78.49
2023-05-19T20:30:52.722Z,78.86
2023-05-19T20:33:22.588Z,80.39
2023-05-19T20:35:49.387Z,79.82
2023-05-19T20:38:16.010Z,80.08
2023-05-19T20:40:43.607Z,79.12
2023-05-19T20:43:10.281Z,79.50
2023-05-19T20:45:37.415Z,78.24
2023-05-19T20:48:04.742Z,79.72
2023-05-19T20:50:31.937Z,78.53
2023-05-19T20:52:59.132Z,78.36
2023-05-19T20:55:26.010Z,79.01
2023-05-19T20:57:52.818Z,79.46
2023-05-19T21:00:19.340Z,80.13
2023-05-19T21:02:46.074Z,78.91
2023-05-19T21:05:12.828Z,79.08
2023-05-19T21:07:39.609Z,79.37
2023-05-19T21:10:06.995Z,79.31
2023-05-19T21:12:34.271Z,79.15
2023-05-19T21:15:03.498Z,79.58
2023-05-19T21:17:30.136Z,79.77
2023-05-19T21:19:57.802Z,79.82
2023-05-19T21:22:25.387Z,80.65
2023-05-19T21:24:52.246Z,80.24
2023-05-19T21:27:18.889Z,79.73
2023-05-19T21:29:45.394Z,79.86
2023-05-19T21:32:12.000Z,78.87
2023-05-19T21:34:39.086Z,79.70
2023-05-19T21:37:06.095Z,79.34
2023-05-19T21:39:32.585Z,79.38
2023-05-19T21:41:59.375Z,79.37
2023-05-19T21:44:26.419Z,79.24
2023-05-19T21:46:53.116Z,78.96
2023-05-19T21:49:20.305Z,80.38
2023-05-19T21:51:46.849Z,79.43
2023-05-19T21:54:13.448Z,80.17
2023-05-19T21:56:40.023Z,79.70
2023-05-19T21:59:06.894Z,82.33
2023-05-19T22:01:33.793Z,81.02
2023-05-19T22:04:00.445Z,80.12
2023-05-19T22:06:27.081Z,79.94
2023-05-19T22:08:53.852Z,79.61
2023-05-19T22:11:21.388Z,80.06
2023-05-19T22:13:47.875Z,79.54
2023-05-19T22:16:14.554Z,80.57
2023-05-19T22:18:41.152Z,80.59
2023-05-19T22:21:08.052Z,80.10
2023-05-19T22:23:34.610Z,80.83
2023-05-19T22:26:01.240Z,80.68
2023-05-19T22:28:27.779Z,80.44
2023-05-19T22:30:54.305Z,80.29
2023-05-19T22:33:20.899Z,80.35
2023-05-19T22:35:47.462Z,84.12
2023-05-19T22:38:14.092Z,81.62
2023-05-19T22:40:40.849Z,83.52
2023-05-19T22:43:07.369Z,85.29
2023-05-19T22:45:36.169Z,81.61
2023-05-19T22:48:03.123Z,82.61
2023-05-19T22:50:29.806Z,82.54
2023-05-19T22:52:56.348Z,83.22
2023-05-19T22:55:22.865Z,83.48
2023-05-19T22:57:49.473Z,81.36
2023-05-19T23:00:18.652Z,82.99
2023-05-19T23:02:45.404Z,82.53
2023-05-19T23:05:11.938Z,81.56
2023-05-19T23:07:38.546Z,82.28
2023-05-19T23:10:07.410Z,82.46
2023-05-19T23:12:34.016Z,82.63
2023-05-19T23:15:00.752Z,82.46
2023-05-19T23:17:27.526Z,83.39
2023-05-19T23:19:54.072Z,82.80
2023-05-19T23:22:20.629Z,82.69
2023-05-19T23:24:47.270Z,83.26
2023-05-19T23:27:13.789Z,83.81
2023-05-19T23:29:40.363Z,83.26
2023-05-19T23:32:07.264Z,84.58
2023-05-19T23:34:33.810Z,83.91
2023-05-19T23:37:00.342Z,84.62
2023-05-19T23:39:27.577Z,84.00
2023-05-19T23:41:54.137Z,82.99
2023-05-19T23:44:20.649Z,84.35
2023-05-19T23:46:47.204Z,85.05
2023-05-19T23:49:14.474Z,84.54
2023-05-19T23:51:41.378Z,85.58
2023-05-19T23:54:07.892Z,84.71
2023-05-19T23:56:34.498Z,84.49
2023-05-19T23:59:01.078Z,84.09
